Harvest Peace — V7VE7 — position and weather

sailwx.info

Track history (hours):
 
Tides and Currents Weather Stations Pressure Air Temp Water Temp Dewpoint Dewpoint Depression Visibility Wind Speed Wind Dir Waves Ship Positions

Harvest Peace

Last reported at 2016-May-05 13:33 UTC. Time now 2016-May-05 14:20 UTC.
Position N 53°31' E 009°57'.

Length 225 m; draft 10.4 m.

Type: Cargo ship. MMSI: 538004103.

Date/timePositionNaut miles runAvg speedWind from/ knotsBaromVisibWave heightAir tempDewpointWater temp
2016-May-05 13:33N 53°31' E 009°57'0 0.0
2016-May-05 12:33N 53°31' E 009°57'0 0.0
2016-May-05 11:30N 53°31' E 009°57'0 0.0
2016-May-05 10:33N 53°31' E 009°57'0 0.0
2016-May-05 09:33N 53°31' E 009°57'0 0.0
2016-May-05 08:33N 53°31' E 009°57'0 0.0
2016-May-05 07:33N 53°31' E 009°57'0 0.0
2016-May-05 06:33N 53°31' E 009°57'0 0.0
2016-May-05 05:33N 53°31' E 009°57'0 0.0
2016-May-05 04:33N 53°31' E 009°57'0 0.0
2016-May-05 03:33N 53°31' E 009°57'0 0.0
2016-May-05 02:33N 53°31' E 009°57'0 0.0
2016-May-05 01:33N 53°31' E 009°57'0 0.0
2016-May-05 00:33N 53°31' E 009°57'0 0.0
2016-May-04 23:33N 53°31' E 009°57'0 0.0
2016-May-04 22:33N 53°31' E 009°57'0 0.0
2016-May-04 21:33N 53°31' E 009°57'0 0.0
2016-May-04 20:33N 53°31' E 009°57'0 0.0
2016-May-04 19:33N 53°31' E 009°57'0 0.0
2016-May-04 18:33N 53°31' E 009°57'0 0.0
2016-May-04 17:33N 53°31' E 009°57'0 0.0
2016-May-04 16:33N 53°31' E 009°57'0 0.0
2016-May-04 15:33N 53°31' E 009°57'0 0.0
2016-May-04 14:33N 53°31' E 009°57'0 0.0
2016-May-04 13:33N 53°31' E 009°57'0 0.0
2016-May-04 12:33N 53°31' E 009°57'0 0.0
2016-May-04 11:33N 53°31' E 009°57'0 0.0
2016-May-04 10:32N 53°31' E 009°57'0 0.0
2016-May-04 09:33N 53°31' E 009°57'0 0.0
2016-May-04 08:33N 53°31' E 009°57'0 0.0
2016-May-04 07:33N 53°31' E 009°57'0 0.0
2016-May-04 06:33N 53°31' E 009°57'0 0.0
2016-May-04 05:32N 53°31' E 009°57'0 0.0
2016-May-04 04:33N 53°31' E 009°57'0 0.0
2016-May-04 03:33N 53°31' E 009°57'0 0.0
2016-May-04 02:33N 53°31' E 009°57'0 0.0
2016-May-04 01:33N 53°31' E 009°57'0 0.0
2016-May-04 00:33N 53°31' E 009°57'0 0.0
2016-May-03 23:33N 53°31' E 009°57'0 0.0
2016-May-03 22:33N 53°31' E 009°57'0 0.0
2016-May-03 21:33N 53°31' E 009°57'0 0.0
2016-May-03 20:33N 53°31' E 009°57'0 0.0
2016-May-03 19:33N 53°31' E 009°57'0 0.0
2016-May-03 18:33N 53°31' E 009°57'0 0.0
2016-May-03 17:33N 53°31' E 009°57'0 0.0
2016-May-03 16:32N 53°31' E 009°57'0 0.0
2016-May-03 15:33N 53°31' E 009°57'0 0.0
2016-May-03 14:33N 53°31' E 009°57'0 0.0
2016-May-03 13:33N 53°31' E 009°57'0 0.0
2016-May-03 12:33N 53°31' E 009°57'2 2.3
2016-May-03 11:33N 53°32' E 009°54'8 8.0
2016-May-03 10:33N 53°34' E 009°40'10 9.8
2016-May-03 09:33N 53°42' E 009°30'1212.0
2016-May-03 08:34N 53°51' E 009°18'1010.2
2016-May-03 07:34N 53°51' E 009°01'10 9.9
2016-May-03 06:33N 53°52' E 008°44'1212.0
2016-May-03 05:33N 53°59' E 008°28'1413.7
2016-May-03 04:33N 53°59' E 008°05'1111.4
2016-May-03 03:33N 54°04' E 007°47'0 0.4
2016-May-03 02:32N 54°04' E 007°47'0 0.2
2016-May-03 01:32N 54°04' E 007°47'0 0.1
2016-May-03 00:32N 54°04' E 007°47'0 0.0
2016-May-02 23:32N 54°04' E 007°47'0 0.0
2016-May-02 22:32N 54°04' E 007°47'0 0.1
2016-May-02 21:32N 54°04' E 007°47'0 0.0
2016-May-02 20:32N 54°04' E 007°47'0 0.1
2016-May-02 19:32N 54°04' E 007°47'0 0.1
2016-May-02 18:29N 54°04' E 007°47'0 0.0
2016-May-02 17:32N 54°04' E 007°47'0 0.0
2016-May-02 16:34N 54°04' E 007°47'1 0.6
2016-May-02 15:33N 54°04' E 007°46'3 3.5
2016-May-02 14:33N 54°06' E 007°41'7 6.9
2016-May-02 13:33N 54°09' E 007°30'1212.0
2016-May-02 12:33N 54°09' E 007°10'1211.8
2016-May-02 11:33N 54°09' E 006°50'1211.7
2016-May-02 10:33N 54°09' E 006°30'1211.7
2016-May-02 09:32N 54°08' E 006°10'1211.8
2016-May-02 08:33N 54°06' E 005°50'1211.9
2016-May-02 07:33N 54°04' E 005°30'1212.1
2016-May-02 06:33N 54°03' E 005°10'1212.3
2016-May-02 05:33N 54°01' E 004°49'1212.0
2016-May-02 04:33N 53°53' E 004°33'1312.6
2016-May-02 03:32N 53°44' E 004°17'1312.9
2016-May-02 02:32N 53°37' E 004°00'2512.5
2016-May-02 00:31N 53°16' E 003°35'2713.2
2016-May-01 22:29N 52°51' E 003°18'1313.5
2016-May-01 21:33N 52°40' E 003°08'1313.6
2016-May-01 20:33N 52°28' E 002°57'1313.3
2016-May-01 19:33N 52°16' E 002°47'1312.6
2016-May-01 18:33N 52°05' E 002°41'1212.2
2016-May-01 17:33N 51°52' E 002°39'1111.2
2016-May-01 16:33N 51°42' E 002°31'1111.4
2016-May-01 15:33N 51°33' E 002°20'1111.3
2016-May-01 14:33N 51°23' E 002°11'1111.4
2016-May-01 13:33N 51°23' E 002°29'1211.8
2016-May-01 12:33N 51°25' E 002°48'1211.7
2016-May-01 11:33N 51°24' E 003°06'1312.9
2016-May-01 10:33N 51°25' E 003°27'10 9.9
2016-May-01 09:33N 51°25' E 003°43'2 1.9
2016-May-01 08:33N 51°24' E 003°45'0 0.0
2016-May-01 07:29N 51°24' E 003°45'0 0.0
2016-May-01 06:32N 51°24' E 003°45'0 0.0
2016-May-01 05:29N 51°24' E 003°45'0 0.0
2016-May-01 04:33N 51°24' E 003°45'5 5.4
2016-May-01 03:33N 51°26' E 003°38'1211.7
2016-May-01 02:34N 51°24' E 003°19'1110.6
2016-May-01 01:33N 51°24' E 003°02'10 9.5
2016-May-01 00:33N 51°24' E 002°47'7 6.5
2016-Apr-30 23:26N 51°22' E 002°36'5 5.4
2016-Apr-30 22:33N 51°22' E 002°28'10 9.6
2016-Apr-30 21:33N 51°17' E 002°14'1312.7
2016-Apr-30 20:33N 51°11' E 001°57'1313.0
2016-Apr-30 19:33N 51°03' E 001°40'1313.1
2016-Apr-30 18:33N 50°53' E 001°28'1313.2
2016-Apr-30 17:33N 50°41' E 001°19'3913.1
2016-Apr-30 14:33N 50°23' E 000°24'1313.4
2016-Apr-30 13:33N 50°20' E 000°03'1313.3
2016-Apr-30 12:33N 50°16' W 000°17'1613.0
2016-Apr-30 11:22N 50°12' W 000°40'8410.7
2016-Apr-30 03:33N 49°50' W 002°46'1211.8
2016-Apr-30 02:33N 49°46' W 003°03'1212.1
2016-Apr-30 01:33N 49°40' W 003°19'8812.5
2016-Apr-29 18:32N 48°55' W 005°15'1312.8
2016-Apr-29 17:33N 48°49' W 005°32'  
2016-Apr-26 19:25N 37°07' W 014°50'1111.9
2016-Apr-26 18:31N 36°57' W 014°56'2912.2
2016-Apr-26 16:10N 36°32' W 015°12'  
Track history (hours):
 
Tides and Currents Weather Stations Pressure Air Temp Water Temp Dewpoint Dewpoint Depression Visibility Wind Speed Wind Dir Waves Ship Positions

Harvest Peace

Last reported at 2016-May-05 13:33 UTC. Time now 2016-May-05 14:20 UTC.
Position N 53°31' E 009°57'.

Length 225 m; draft 10.4 m.

Type: Cargo ship. MMSI: 538004103.

Date/timePositionNaut miles runAvg speedWind from/ knotsBaromVisibWave heightAir tempDewpointWater temp
2016-May-05 13:33N 53°31' E 009°57'0 0.0
2016-May-05 12:33N 53°31' E 009°57'0 0.0
2016-May-05 11:30N 53°31' E 009°57'0 0.0
2016-May-05 10:33N 53°31' E 009°57'0 0.0
2016-May-05 09:33N 53°31' E 009°57'0 0.0
2016-May-05 08:33N 53°31' E 009°57'0 0.0
2016-May-05 07:33N 53°31' E 009°57'0 0.0
2016-May-05 06:33N 53°31' E 009°57'0 0.0
2016-May-05 05:33N 53°31' E 009°57'0 0.0
2016-May-05 04:33N 53°31' E 009°57'0 0.0
2016-May-05 03:33N 53°31' E 009°57'0 0.0
2016-May-05 02:33N 53°31' E 009°57'0 0.0
2016-May-05 01:33N 53°31' E 009°57'0 0.0
2016-May-05 00:33N 53°31' E 009°57'0 0.0
2016-May-04 23:33N 53°31' E 009°57'0 0.0
2016-May-04 22:33N 53°31' E 009°57'0 0.0
2016-May-04 21:33N 53°31' E 009°57'0 0.0
2016-May-04 20:33N 53°31' E 009°57'0 0.0
2016-May-04 19:33N 53°31' E 009°57'0 0.0
2016-May-04 18:33N 53°31' E 009°57'0 0.0
2016-May-04 17:33N 53°31' E 009°57'0 0.0
2016-May-04 16:33N 53°31' E 009°57'0 0.0
2016-May-04 15:33N 53°31' E 009°57'0 0.0
2016-May-04 14:33N 53°31' E 009°57'0 0.0
2016-May-04 13:33N 53°31' E 009°57'0 0.0
2016-May-04 12:33N 53°31' E 009°57'0 0.0
2016-May-04 11:33N 53°31' E 009°57'0 0.0
2016-May-04 10:32N 53°31' E 009°57'0 0.0
2016-May-04 09:33N 53°31' E 009°57'0 0.0
2016-May-04 08:33N 53°31' E 009°57'0 0.0
2016-May-04 07:33N 53°31' E 009°57'0 0.0
2016-May-04 06:33N 53°31' E 009°57'0 0.0
2016-May-04 05:32N 53°31' E 009°57'0 0.0
2016-May-04 04:33N 53°31' E 009°57'0 0.0
2016-May-04 03:33N 53°31' E 009°57'0 0.0
2016-May-04 02:33N 53°31' E 009°57'0 0.0
2016-May-04 01:33N 53°31' E 009°57'0 0.0
2016-May-04 00:33N 53°31' E 009°57'0 0.0
2016-May-03 23:33N 53°31' E 009°57'0 0.0
2016-May-03 22:33N 53°31' E 009°57'0 0.0
2016-May-03 21:33N 53°31' E 009°57'0 0.0
2016-May-03 20:33N 53°31' E 009°57'0 0.0
2016-May-03 19:33N 53°31' E 009°57'0 0.0
2016-May-03 18:33N 53°31' E 009°57'0 0.0
2016-May-03 17:33N 53°31' E 009°57'0 0.0
2016-May-03 16:32N 53°31' E 009°57'0 0.0
2016-May-03 15:33N 53°31' E 009°57'0 0.0
2016-May-03 14:33N 53°31' E 009°57'0 0.0
2016-May-03 13:33N 53°31' E 009°57'0 0.0
2016-May-03 12:33N 53°31' E 009°57'2 2.3
2016-May-03 11:33N 53°32' E 009°54'8 8.0
2016-May-03 10:33N 53°34' E 009°40'10 9.8
2016-May-03 09:33N 53°42' E 009°30'1212.0
2016-May-03 08:34N 53°51' E 009°18'1010.2
2016-May-03 07:34N 53°51' E 009°01'10 9.9
2016-May-03 06:33N 53°52' E 008°44'1212.0
2016-May-03 05:33N 53°59' E 008°28'1413.7
2016-May-03 04:33N 53°59' E 008°05'1111.4
2016-May-03 03:33N 54°04' E 007°47'0 0.4
2016-May-03 02:32N 54°04' E 007°47'0 0.2
2016-May-03 01:32N 54°04' E 007°47'0 0.1
2016-May-03 00:32N 54°04' E 007°47'0 0.0
2016-May-02 23:32N 54°04' E 007°47'0 0.0
2016-May-02 22:32N 54°04' E 007°47'0 0.1
2016-May-02 21:32N 54°04' E 007°47'0 0.0
2016-May-02 20:32N 54°04' E 007°47'0 0.1
2016-May-02 19:32N 54°04' E 007°47'0 0.1
2016-May-02 18:29N 54°04' E 007°47'0 0.0
2016-May-02 17:32N 54°04' E 007°47'0 0.0
2016-May-02 16:34N 54°04' E 007°47'1 0.6
2016-May-02 15:33N 54°04' E 007°46'3 3.5
2016-May-02 14:33N 54°06' E 007°41'7 6.9
2016-May-02 13:33N 54°09' E 007°30'1212.0
2016-May-02 12:33N 54°09' E 007°10'1211.8
2016-May-02 11:33N 54°09' E 006°50'1211.7
2016-May-02 10:33N 54°09' E 006°30'1211.7
2016-May-02 09:32N 54°08' E 006°10'1211.8
2016-May-02 08:33N 54°06' E 005°50'1211.9
2016-May-02 07:33N 54°04' E 005°30'1212.1
2016-May-02 06:33N 54°03' E 005°10'1212.3
2016-May-02 05:33N 54°01' E 004°49'1212.0
2016-May-02 04:33N 53°53' E 004°33'1312.6
2016-May-02 03:32N 53°44' E 004°17'1312.9
2016-May-02 02:32N 53°37' E 004°00'2512.5
2016-May-02 00:31N 53°16' E 003°35'2713.2
2016-May-01 22:29N 52°51' E 003°18'1313.5
2016-May-01 21:33N 52°40' E 003°08'1313.6
2016-May-01 20:33N 52°28' E 002°57'1313.3
2016-May-01 19:33N 52°16' E 002°47'1312.6
2016-May-01 18:33N 52°05' E 002°41'1212.2
2016-May-01 17:33N 51°52' E 002°39'1111.2
2016-May-01 16:33N 51°42' E 002°31'1111.4
2016-May-01 15:33N 51°33' E 002°20'1111.3
2016-May-01 14:33N 51°23' E 002°11'1111.4
2016-May-01 13:33N 51°23' E 002°29'1211.8
2016-May-01 12:33N 51°25' E 002°48'1211.7
2016-May-01 11:33N 51°24' E 003°06'1312.9
2016-May-01 10:33N 51°25' E 003°27'10 9.9
2016-May-01 09:33N 51°25' E 003°43'2 1.9
2016-May-01 08:33N 51°24' E 003°45'0 0.0
2016-May-01 07:29N 51°24' E 003°45'0 0.0
2016-May-01 06:32N 51°24' E 003°45'0 0.0
2016-May-01 05:29N 51°24' E 003°45'0 0.0
2016-May-01 04:33N 51°24' E 003°45'5 5.4
2016-May-01 03:33N 51°26' E 003°38'1211.7
2016-May-01 02:34N 51°24' E 003°19'1110.6
2016-May-01 01:33N 51°24' E 003°02'10 9.5
2016-May-01 00:33N 51°24' E 002°47'7 6.5
2016-Apr-30 23:26N 51°22' E 002°36'5 5.4
2016-Apr-30 22:33N 51°22' E 002°28'10 9.6
2016-Apr-30 21:33N 51°17' E 002°14'1312.7
2016-Apr-30 20:33N 51°11' E 001°57'1313.0
2016-Apr-30 19:33N 51°03' E 001°40'1313.1
2016-Apr-30 18:33N 50°53' E 001°28'1313.2
2016-Apr-30 17:33N 50°41' E 001°19'3913.1
2016-Apr-30 14:33N 50°23' E 000°24'1313.4
2016-Apr-30 13:33N 50°20' E 000°03'1313.3
2016-Apr-30 12:33N 50°16' W 000°17'1613.0
2016-Apr-30 11:22N 50°12' W 000°40'8410.7
2016-Apr-30 03:33N 49°50' W 002°46'1211.8
2016-Apr-30 02:33N 49°46' W 003°03'1212.1
2016-Apr-30 01:33N 49°40' W 003°19'8812.5
2016-Apr-29 18:32N 48°55' W 005°15'1312.8
2016-Apr-29 17:33N 48°49' W 005°32'  
2016-Apr-26 19:25N 37°07' W 014°50'1111.9
2016-Apr-26 18:31N 36°57' W 014°56'2912.2
2016-Apr-26 16:10N 36°32' W 015°12'  

Dump ship's entire track history